Time;durP1;ratioP1;P1;durP2;ratioP2;P2;SDS_P1;SDS_P2;PMS_P1;PMS_P2;Temp;Humidity;BMP_temperature;BMP_pressure;BME280_temperature;BME280_humidity;BME280_pressure;Samples;Min_cycle;Max_cycle;Signal;HPM_P1;HPM_P2
2022/03/24 00:00:24;;;;;;;;;;;;;;;17.19;49.19;102685.16;1017277;29;710;-76
2022/03/24 00:01:15;;;;;;;;;;;;;;;17.18;48.80;102686.97;1016835;29;643;-76
2022/03/24 00:02:06;;;;;;;;;;;;;;;17.18;48.90;102684.28;1017801;29;662;-76
2022/03/24 00:02:56;;;;;;;;;;;;;;;17.17;48.85;102681.69;1016725;29;698;-76
2022/03/24 00:03:47;;;;;;;;;;;;;;;17.17;48.73;102692.47;1016757;29;773;-76
2022/03/24 00:04:37;;;;;;;;;;;;;;;17.17;49.03;102687.06;1017533;29;670;-75
2022/03/24 00:05:28;;;;;;;;;;;;;;;17.17;49.01;102692.47;1016629;29;988;-76
2022/03/24 00:06:18;;;;;;;;;;;;;;;17.16;48.98;102686.19;1017759;29;695;-76
2022/03/24 00:07:09;;;;;;;;;;;;;;;17.17;49.18;102684.38;1017319;29;682;-76
2022/03/24 00:07:59;;;;;;;;;;;;;;;17.16;48.79;102685.34;1016699;29;1211;-76
2022/03/24 00:08:49;;;;;;;;;;;;;;;17.15;48.95;102684.47;1017871;29;623;-76
2022/03/24 00:09:40;;;;;;;;;;;;;;;17.16;49.04;102679.94;1017364;29;619;-76
2022/03/24 00:10:30;;;;;;;;;;;;;;;17.15;49.29;102684.47;1017180;29;674;-76
2022/03/24 00:11:21;;;;;;;;;;;;;;;17.15;49.51;102689.00;1017115;29;603;-76
2022/03/24 00:12:11;;;;;;;;;;;;;;;17.14;49.52;102684.56;1017171;29;646;-75
2022/03/24 00:13:02;;;;;;;;;;;;;;;17.14;49.15;102681.88;1017278;29;631;-75
2022/03/24 00:13:53;;;;;;;;;;;;;;;17.14;49.59;102689.94;1017297;29;655;-76
2022/03/24 00:14:44;;;;;;;;;;;;;;;17.15;49.33;102680.91;1016997;29;1610;-76
2022/03/24 00:15:35;;;;;;;;;;;;;;;17.14;49.33;102681.88;1017170;29;603;-76
2022/03/24 00:16:26;;;;;;;;;;;;;;;17.13;49.23;102674.75;1017147;29;679;-76
2022/03/24 00:17:16;;;;;;;;;;;;;;;17.13;49.37;102680.13;1017219;29;635;-76
2022/03/24 00:18:07;;;;;;;;;;;;;;;17.11;48.76;102682.91;1017281;29;686;-76
2022/03/24 00:18:59;;;;;;;;;;;;;;;17.12;49.04;102681.97;1017236;29;678;-76
2022/03/24 00:19:49;;;;;;;;;;;;;;;17.11;48.98;102682.91;1016769;29;645;-76
2022/03/24 00:20:40;;;;;;;;;;;;;;;17.11;48.85;102682.06;1017185;29;635;-76
2022/03/24 00:21:30;;;;;;;;;;;;;;;17.11;49.43;102684.75;1017232;29;686;-75
2022/03/24 00:22:21;;;;;;;;;;;;;;;17.10;49.49;102675.81;1017106;29;732;-79
2022/03/24 00:23:11;;;;;;;;;;;;;;;17.09;49.26;102683.97;1020832;29;658;-76
2022/03/24 00:24:02;;;;;;;;;;;;;;;17.10;49.22;102683.03;1020844;29;687;-76
2022/03/24 00:24:52;;;;;;;;;;;;;;;17.10;49.17;102680.31;1017320;29;699;-76
2022/03/24 00:25:42;;;;;;;;;;;;;;;17.09;49.52;102681.28;1017214;29;670;-75
2022/03/24 00:26:33;;;;;;;;;;;;;;;17.08;49.36;102683.09;1017126;29;647;-75
2022/03/24 00:27:24;;;;;;;;;;;;;;;17.09;49.02;102678.59;1017121;29;654;-75
2022/03/24 00:28:14;;;;;;;;;;;;;;;17.09;49.38;102683.97;1017050;29;1122;-75
2022/03/24 00:29:05;;;;;;;;;;;;;;;17.08;49.23;102675.03;1017259;29;653;-75
2022/03/24 00:29:56;;;;;;;;;;;;;;;17.07;49.26;102676.00;1017219;29;801;-75
2022/03/24 00:30:46;;;;;;;;;;;;;;;17.07;49.26;102675.13;1017144;29;703;-75
2022/03/24 00:31:37;;;;;;;;;;;;;;;17.06;49.25;102674.25;1017099;29;676;-74
2022/03/24 00:32:27;;;;;;;;;;;;;;;17.08;49.13;102671.47;1017210;29;635;-75
2022/03/24 00:33:17;;;;;;;;;;;;;;;17.06;49.08;102671.56;1017123;29;753;-75
2022/03/24 00:34:08;;;;;;;;;;;;;;;17.07;48.73;102672.44;1016821;29;710;-75
2022/03/24 00:34:58;;;;;;;;;;;;;;;17.06;48.88;102670.69;1016554;29;674;-75
2022/03/24 00:35:49;;;;;;;;;;;;;;;17.06;49.24;102670.69;1017200;29;686;-75
2022/03/24 00:36:39;;;;;;;;;;;;;;;17.07;48.91;102675.13;1017157;29;690;-77
2022/03/24 00:37:31;;;;;;;;;;;;;;;17.06;49.35;102674.25;1017786;29;648;-78
2022/03/24 00:38:21;;;;;;;;;;;;;;;17.06;49.12;102665.31;1017111;29;710;-77
2022/03/24 00:39:11;;;;;;;;;;;;;;;17.02;49.21;102660.09;1017135;29;623;-77
2022/03/24 00:40:06;;;;;;;;;;;;;;;17.04;49.30;102665.41;1017229;29;635;-77
2022/03/24 00:40:57;;;;;;;;;;;;;;;17.04;49.49;102664.53;1017178;29;576;-77
2022/03/24 00:41:47;;;;;;;;;;;;;;;17.04;49.43;102664.53;1017206;29;710;-77
2022/03/24 00:42:37;;;;;;;;;;;;;;;17.03;49.29;102666.38;1017151;29;670;-77
2022/03/24 00:43:28;;;;;;;;;;;;;;;17.02;49.20;102667.31;1017055;29;666;-77
2022/03/24 00:44:20;;;;;;;;;;;;;;;17.00;49.38;102664.75;1016562;29;753;-77
2022/03/24 00:45:12;;;;;;;;;;;;;;;17.02;49.08;102672.72;1013336;29;656;-76
2022/03/24 00:46:04;;;;;;;;;;;;;;;17.00;49.72;102662.06;1014399;29;710;-77
2022/03/24 00:46:54;;;;;;;;;;;;;;;17.02;49.55;102671.88;1012686;29;619;-77
2022/03/24 00:47:45;;;;;;;;;;;;;;;17.02;49.71;102663.78;1013926;29;623;-77
2022/03/24 00:48:35;;;;;;;;;;;;;;;17.01;49.51;102671.00;1012945;29;687;-78
2022/03/24 00:49:26;;;;;;;;;;;;;;;17.00;49.43;102670.16;1013639;29;699;-77
2022/03/24 00:50:16;;;;;;;;;;;;;;;16.99;49.12;102668.41;1012759;29;881;-77
2022/03/24 00:51:07;;;;;;;;;;;;;;;17.01;49.58;102671.00;1012706;29;664;-78
2022/03/24 00:51:57;;;;;;;;;;;;;;;17.00;49.18;102669.28;1012782;29;639;-76
2022/03/24 00:52:48;;;;;;;;;;;;;;;17.00;49.44;102671.97;1014261;29;627;-75
2022/03/24 00:53:38;;;;;;;;;;;;;;;16.99;49.37;102672.94;1014134;29;666;-76
2022/03/24 00:54:28;;;;;;;;;;;;;;;16.99;49.63;102670.25;1013665;29;1899;-78
2022/03/24 00:55:19;;;;;;;;;;;;;;;16.98;49.27;102663.97;1012667;29;629;-78
2022/03/24 00:56:10;;;;;;;;;;;;;;;16.98;49.45;102663.97;1012850;29;652;-78
2022/03/24 00:57:01;;;;;;;;;;;;;;;16.96;49.38;102668.59;1014061;29;647;-78
2022/03/24 00:57:53;;;;;;;;;;;;;;;16.97;49.27;102667.63;1013381;29;627;-79
2022/03/24 00:58:43;;;;;;;;;;;;;;;16.96;49.62;102665.91;1013636;29;702;-79
2022/03/24 00:59:33;;;;;;;;;;;;;;;16.95;49.41;102666.88;1014294;29;733;-79
2022/03/24 01:00:25;;;;;;;;;;;;;;;16.97;49.59;102664.06;1012747;29;670;-79
2022/03/24 01:01:16;;;;;;;;;;;;;;;16.95;49.42;102664.16;1012718;29;612;-79
2022/03/24 01:02:09;;;;;;;;;;;;;;;16.95;49.29;102661.47;1012731;29;723;-79
2022/03/24 01:03:00;;;;;;;;;;;;;;;16.95;49.20;102661.47;1012338;29;738;-79
2022/03/24 01:03:50;;;;;;;;;;;;;;;16.96;49.33;102662.34;1014380;29;674;-79
2022/03/24 01:04:41;;;;;;;;;;;;;;;16.95;49.27;102661.47;1013918;29;686;-81
2022/03/24 01:05:32;;;;;;;;;;;;;;;16.95;49.55;102661.47;1013475;29;698;-79
2022/03/24 01:06:26;;;;;;;;;;;;;;;16.94;49.23;102661.56;1013712;29;655;-78
2022/03/24 01:07:16;;;;;;;;;;;;;;;16.95;49.49;102663.31;1012643;29;608;-74
2022/03/24 01:08:08;;;;;;;;;;;;;;;16.94;49.34;102658.88;1016253;29;1242;-77
2022/03/24 01:08:58;;;;;;;;;;;;;;;16.93;49.95;102663.41;1017212;29;650;-79
2022/03/24 01:09:49;;;;;;;;;;;;;;;16.92;49.74;102658.97;1017076;29;614;-80
2022/03/24 01:10:39;;;;;;;;;;;;;;;16.92;49.30;102664.34;1017014;29;647;-77
2022/03/24 01:11:31;;;;;;;;;;;;;;;16.92;49.23;102658.97;1017032;29;701;-77
2022/03/24 01:12:22;;;;;;;;;;;;;;;16.93;49.34;102657.16;1017651;29;646;-78
2022/03/24 01:13:12;;;;;;;;;;;;;;;16.93;49.49;102662.53;1017112;29;678;-77
2022/03/24 01:14:05;;;;;;;;;;;;;;;16.92;49.28;102658.97;1017125;29;627;-77
2022/03/24 01:14:58;;;;;;;;;;;;;;;16.91;49.30;102657.25;1013831;29;655;-77
2022/03/24 01:15:49;;;;;;;;;;;;;;;16.91;49.35;102659.94;1013148;29;619;-77
2022/03/24 01:16:40;;;;;;;;;;;;;;;16.90;49.78;102652.81;1013058;29;721;-77
2022/03/24 01:17:31;;;;;;;;;;;;;;;16.91;49.13;102659.94;1012743;29;623;-77
2022/03/24 01:18:21;;;;;;;;;;;;;;;16.90;49.52;102657.34;1013219;29;658;-77
2022/03/24 01:19:12;;;;;;;;;;;;;;;16.90;49.10;102663.59;1013268;29;646;-74
2022/03/24 01:20:03;;;;;;;;;;;;;;;16.89;49.37;102656.47;1013298;29;619;-73
2022/03/24 01:20:53;;;;;;;;;;;;;;;16.90;49.44;102655.50;1013139;29;734;-74
2022/03/24 01:21:44;;;;;;;;;;;;;;;16.90;49.42;102651.94;1013115;29;664;-73
2022/03/24 01:22:34;;;;;;;;;;;;;;;16.88;49.62;102648.47;1013116;29;678;-74
2022/03/24 01:23:26;;;;;;;;;;;;;;;16.88;49.59;102654.72;1014044;29;631;-73
2022/03/24 01:24:18;;;;;;;;;;;;;;;16.88;49.45;102649.34;1014244;29;639;-74
2022/03/24 01:25:08;;;;;;;;;;;;;;;16.88;49.76;102653.88;1013989;29;741;-74
2022/03/24 01:26:00;;;;;;;;;;;;;;;16.89;49.65;102652.91;1014005;29;584;-76
2022/03/24 01:26:50;;;;;;;;;;;;;;;16.88;49.31;102645.78;1013346;29;635;-76
2022/03/24 01:27:41;;;;;;;;;;;;;;;16.87;49.57;102644.91;1013938;29;623;-79
2022/03/24 01:28:33;;;;;;;;;;;;;;;16.87;49.74;102652.13;1014005;29;639;-78
2022/03/24 01:29:23;;;;;;;;;;;;;;;16.86;49.27;102653.97;1013938;29;690;-78
2022/03/24 01:30:13;;;;;;;;;;;;;;;16.86;49.39;102650.41;1013974;29;621;-77
2022/03/24 01:31:04;;;;;;;;;;;;;;;16.86;49.33;102650.41;1013998;29;662;-77
2022/03/24 01:31:54;;;;;;;;;;;;;;;16.85;49.49;102646.84;1013953;29;698;-77
2022/03/24 01:32:45;;;;;;;;;;;;;;;16.85;49.82;102649.53;1014448;29;623;-77
2022/03/24 01:33:37;;;;;;;;;;;;;;;16.85;49.28;102649.53;1013853;29;662;-77
2022/03/24 01:34:28;;;;;;;;;;;;;;;16.85;49.63;102649.53;1013852;29;2072;-78
2022/03/24 01:35:18;;;;;;;;;;;;;;;16.85;49.41;102648.66;1013915;29;621;-79
2022/03/24 01:36:09;;;;;;;;;;;;;;;16.84;49.37;102644.28;1014750;29;703;-77
2022/03/24 01:36:59;;;;;;;;;;;;;;;16.84;49.80;102647.81;1014171;29;737;-78
2022/03/24 01:37:49;;;;;;;;;;;;;;;16.83;49.95;102646.09;1013999;29;706;-78
2022/03/24 01:38:40;;;;;;;;;;;;;;;16.83;49.75;102642.53;1013821;29;639;-78
2022/03/24 01:39:30;;;;;;;;;;;;;;;16.82;49.62;102644.38;1013883;29;866;-78
2022/03/24 01:40:21;;;;;;;;;;;;;;;16.82;49.86;102644.38;1013890;29;592;-78
2022/03/24 01:41:11;;;;;;;;;;;;;;;16.82;49.50;102640.81;1014499;29;745;-79
2022/03/24 01:42:01;;;;;;;;;;;;;;;16.82;49.61;102643.50;1013887;29;753;-78
2022/03/24 01:42:52;;;;;;;;;;;;;;;16.82;49.13;102640.81;1014432;29;685;-78
2022/03/24 01:43:42;;;;;;;;;;;;;;;16.81;49.71;102637.25;1013854;29;650;-79
2022/03/24 01:44:33;;;;;;;;;;;;;;;16.81;49.89;102639.06;1014865;29;1615;-79
2022/03/24 01:45:25;;;;;;;;;;;;;;;16.80;49.65;102638.22;1013641;29;679;-79
2022/03/24 01:46:16;;;;;;;;;;;;;;;16.80;49.65;102638.22;1013373;29;694;-78
2022/03/24 01:47:07;;;;;;;;;;;;;;;16.80;49.71;102640.91;1013060;29;690;-79
2022/03/24 01:47:57;;;;;;;;;;;;;;;16.81;49.59;102639.06;1012914;29;663;-79
2022/03/24 01:48:48;;;;;;;;;;;;;;;16.79;49.52;102633.78;1013275;29;664;-79
2022/03/24 01:49:38;;;;;;;;;;;;;;;16.79;49.38;102630.22;1014790;29;646;-78
2022/03/24 01:50:29;;;;;;;;;;;;;;;16.79;49.86;102638.31;1012923;29;628;-80
2022/03/24 01:51:19;;;;;;;;;;;;;;;16.78;49.26;102632.06;1013160;29;667;-80
2022/03/24 01:52:10;;;;;;;;;;;;;;;16.78;49.26;102637.44;1015104;29;642;-79
2022/03/24 01:53:01;;;;;;;;;;;;;;;16.79;49.66;102630.22;1013203;29;675;-79
2022/03/24 01:53:53;;;;;;;;;;;;;;;16.78;49.67;102632.06;1014794;29;651;-79
2022/03/24 01:54:43;;;;;;;;;;;;;;;16.78;49.82;102632.06;1014956;29;1894;-79
2022/03/24 01:55:34;;;;;;;;;;;;;;;16.78;49.49;102626.66;1014980;29;650;-79
2022/03/24 01:56:25;;;;;;;;;;;;;;;16.77;49.27;102630.31;1013324;29;671;-79
2022/03/24 01:57:15;;;;;;;;;;;;;;;16.77;49.44;102624.94;1013286;29;631;-78
2022/03/24 01:58:06;;;;;;;;;;;;;;;16.77;49.86;102635.69;1013319;29;635;-79
2022/03/24 01:58:56;;;;;;;;;;;;;;;16.75;49.60;102632.25;1013326;29;686;-80
2022/03/24 01:59:47;;;;;;;;;;;;;;;16.75;49.66;102626.84;1013259;29;675;-80
2022/03/24 02:00:37;;;;;;;;;;;;;;;16.76;49.29;102627.72;1013239;29;636;-80
2022/03/24 02:01:27;;;;;;;;;;;;;;;16.75;49.53;102634.06;1012776;29;612;-79
2022/03/24 02:02:18;;;;;;;;;;;;;;;16.74;49.57;102629.63;1014577;29;631;-76
2022/03/24 02:03:08;;;;;;;;;;;;;;;16.74;49.60;102633.19;1013981;29;623;-78
2022/03/24 02:03:59;;;;;;;;;;;;;;;16.73;49.69;102636.84;1014285;29;711;-78
2022/03/24 02:04:49;;;;;;;;;;;;;;;16.74;49.53;102632.34;1013283;29;647;-78
2022/03/24 02:05:40;;;;;;;;;;;;;;;16.74;50.01;102630.50;1014972;29;679;-77
2022/03/24 02:06:30;;;;;;;;;;;;;;;16.72;49.50;102629.72;1014771;29;741;-77
2022/03/24 02:07:21;;;;;;;;;;;;;;;16.72;49.84;102627.03;1013287;29;639;-77
2022/03/24 02:08:11;;;;;;;;;;;;;;;16.72;49.78;102629.72;1015871;29;1235;-77
2022/03/24 02:09:02;;;;;;;;;;;;;;;16.72;49.55;102627.03;1017590;29;662;-77
2022/03/24 02:09:52;;;;;;;;;;;;;;;16.71;49.43;102630.69;1017716;29;709;-76
2022/03/24 02:10:42;;;;;;;;;;;;;;;16.70;49.54;102626.25;1017585;29;682;-76
2022/03/24 02:11:33;;;;;;;;;;;;;;;16.71;49.78;102629.81;1017717;29;640;-76
2022/03/24 02:12:24;;;;;;;;;;;;;;;16.71;49.98;102628.00;1018246;29;690;-77
2022/03/24 02:13:15;;;;;;;;;;;;;;;16.71;49.75;102630.69;1017699;29;866;-77
2022/03/24 02:14:05;;;;;;;;;;;;;;;16.70;49.73;102623.56;1017707;29;595;-77
2022/03/24 02:14:58;;;;;;;;;;;;;;;16.70;49.27;102628.97;1014339;29;924;-77
2022/03/24 02:15:49;;;;;;;;;;;;;;;16.70;49.80;102628.97;1013281;29;690;-78
2022/03/24 02:16:39;;;;;;;;;;;;;;;16.70;49.81;102633.47;1013860;29;627;-78
2022/03/24 02:17:30;;;;;;;;;;;;;;;16.68;49.44;102625.50;1014356;29;600;-79
2022/03/24 02:18:21;;;;;;;;;;;;;;;16.68;49.47;102630.88;1013818;29;619;-79
2022/03/24 02:19:11;;;;;;;;;;;;;;;16.69;49.71;102629.91;1014231;29;754;-79
2022/03/24 02:20:01;;;;;;;;;;;;;;;16.68;49.71;102628.19;1014533;29;654;-78
2022/03/24 02:20:52;;;;;;;;;;;;;;;16.67;49.86;102626.44;1013908;29;674;-77
2022/03/24 02:21:42;;;;;;;;;;;;;;;16.67;49.45;102632.69;1013882;29;643;-77
2022/03/24 02:22:33;;;;;;;;;;;;;;;16.66;50.06;102625.59;1013741;29;643;-77
2022/03/24 02:23:23;;;;;;;;;;;;;;;16.66;49.76;102622.03;1013806;29;636;-76
2022/03/24 02:24:13;;;;;;;;;;;;;;;16.66;49.70;102622.03;1014304;29;669;-75
2022/03/24 02:25:04;;;;;;;;;;;;;;;16.66;49.69;102619.34;1013708;29;624;-76
2022/03/24 02:25:54;;;;;;;;;;;;;;;16.66;49.74;102624.72;1013758;29;621;-76
2022/03/24 02:26:45;;;;;;;;;;;;;;;16.66;49.90;102624.72;1013661;29;639;-76
2022/03/24 02:27:35;;;;;;;;;;;;;;;16.66;50.06;102620.19;1014390;29;714;-76
2022/03/24 02:28:26;;;;;;;;;;;;;;;16.65;49.70;102626.56;1013968;29;624;-77
2022/03/24 02:29:16;;;;;;;;;;;;;;;16.65;49.62;102623.03;1013844;29;794;-77
2022/03/24 02:30:07;;;;;;;;;;;;;;;16.65;49.69;102620.31;1014055;29;639;-76
2022/03/24 02:30:57;;;;;;;;;;;;;;;16.64;49.52;102624.84;1013993;29;655;-76
2022/03/24 02:31:47;;;;;;;;;;;;;;;16.64;50.04;102619.47;1013688;29;608;-75
2022/03/24 02:32:38;;;;;;;;;;;;;;;16.64;49.77;102621.28;1013659;29;647;-75
2022/03/24 02:33:28;;;;;;;;;;;;;;;16.64;49.83;102623.97;1013689;29;656;-75
2022/03/24 02:34:37;;;;;;;;;;;;;;;16.63;49.82;102616.84;1013745;29;615;-75
2022/03/24 02:35:28;;;;;;;;;;;;;;;16.63;50.03;102619.56;1012449;29;671;-75
2022/03/24 02:36:18;;;;;;;;;;;;;;;16.63;49.36;102611.47;1014561;29;690;-75
2022/03/24 02:37:08;;;;;;;;;;;;;;;16.62;49.71;102618.66;1013942;29;616;-76
2022/03/24 02:37:59;;;;;;;;;;;;;;;16.63;49.95;102614.16;1013664;29;759;-77
2022/03/24 02:38:49;;;;;;;;;;;;;;;16.62;49.24;102617.78;1013712;29;675;-75
2022/03/24 02:39:40;;;;;;;;;;;;;;;16.61;49.35;102613.38;1014269;29;608;-76
2022/03/24 02:40:30;;;;;;;;;;;;;;;16.61;49.64;102618.75;1013764;29;612;-76
2022/03/24 02:41:21;;;;;;;;;;;;;;;16.61;49.59;102613.38;1013814;29;670;-76
2022/03/24 02:42:14;;;;;;;;;;;;;;;16.61;50.01;102616.06;1014097;29;607;-76
2022/03/24 02:43:05;;;;;;;;;;;;;;;16.59;49.43;102610.75;1013689;29;690;-76
2022/03/24 02:43:55;;;;;;;;;;;;;;;16.59;49.77;102616.16;1013717;29;686;-76
2022/03/24 02:44:46;;;;;;;;;;;;;;;16.59;49.75;102616.16;1012641;29;648;-76
2022/03/24 02:45:37;;;;;;;;;;;;;;;16.58;49.83;102614.41;1014207;29;868;-76
2022/03/24 02:46:27;;;;;;;;;;;;;;;16.59;49.79;102621.53;1014161;29;659;-77
2022/03/24 02:47:17;;;;;;;;;;;;;;;16.58;49.27;102618.94;1014213;29;584;-76
2022/03/24 02:48:09;;;;;;;;;;;;;;;16.58;49.79;102614.41;1014239;29;691;-76
2022/03/24 02:48:59;;;;;;;;;;;;;;;16.58;49.68;102613.53;1013652;29;632;-76
2022/03/24 02:49:49;;;;;;;;;;;;;;;16.57;49.61;102618.06;1014217;29;647;-76
2022/03/24 02:50:40;;;;;;;;;;;;;;;16.57;49.70;102617.19;1014149;29;651;-76
2022/03/24 02:51:30;;;;;;;;;;;;;;;16.57;49.63;102614.50;1014231;29;678;-76
2022/03/24 02:52:21;;;;;;;;;;;;;;;16.57;49.63;102606.44;1014102;29;671;-76
2022/03/24 02:53:11;;;;;;;;;;;;;;;16.55;49.77;102611.91;1014100;29;623;-76
2022/03/24 02:54:02;;;;;;;;;;;;;;;16.56;49.60;102615.47;1014170;29;600;-76
2022/03/24 02:54:53;;;;;;;;;;;;;;;16.57;49.77;102619.88;1017648;29;1575;-76
2022/03/24 02:55:43;;;;;;;;;;;;;;;16.55;49.70;102614.59;1018100;29;658;-76
2022/03/24 02:56:34;;;;;;;;;;;;;;;16.55;49.87;102613.72;1017907;29;1547;-76
2022/03/24 02:57:24;;;;;;;;;;;;;;;16.55;49.79;102611.03;1019649;29;687;-76
2022/03/24 02:58:15;;;;;;;;;;;;;;;16.54;49.69;102617.38;1019424;29;862;-75
2022/03/24 02:59:06;;;;;;;;;;;;;;;16.54;49.84;102610.16;1015627;29;648;-74
2022/03/24 02:59:56;;;;;;;;;;;;;;;16.54;49.69;102622.75;1017981;29;618;-74
2022/03/24 03:00:46;;;;;;;;;;;;;;;16.55;49.39;102613.72;1015658;29;687;-74
2022/03/24 03:01:41;;;;;;;;;;;;;;;16.54;49.76;102612.00;1018032;29;643;-74
2022/03/24 03:02:32;;;;;;;;;;;;;;;16.54;49.59;102620.06;1017968;29;650;-74
2022/03/24 03:03:24;;;;;;;;;;;;;;;16.54;49.48;102614.69;1018062;29;732;-73
2022/03/24 03:04:14;;;;;;;;;;;;;;;16.53;50.09;102616.50;1018070;29;728;-74
2022/03/24 03:05:04;;;;;;;;;;;;;;;16.52;49.92;102616.59;1015633;29;706;-73
2022/03/24 03:05:57;;;;;;;;;;;;;;;16.52;50.13;102619.28;1018012;29;702;-73
2022/03/24 03:06:47;;;;;;;;;;;;;;;16.52;49.63;102619.28;1016970;29;665;-73
2022/03/24 03:07:37;;;;;;;;;;;;;;;16.52;49.89;102619.28;1016082;29;663;-73
2022/03/24 03:08:28;;;;;;;;;;;;;;;16.51;49.95;102622.94;1014677;29;678;-73
2022/03/24 03:09:19;;;;;;;;;;;;;;;16.50;49.75;102618.53;1013521;29;787;-73
2022/03/24 03:10:09;;;;;;;;;;;;;;;16.51;49.84;102620.25;1014160;29;656;-74
2022/03/24 03:10:59;;;;;;;;;;;;;;;16.50;49.72;102621.22;1014021;29;670;-73
2022/03/24 03:11:51;;;;;;;;;;;;;;;16.49;49.79;102620.34;1013579;29;623;-73
2022/03/24 03:12:46;;;;;;;;;;;;;;;16.50;49.75;102623.91;1014122;29;615;-74
2022/03/24 03:13:37;;;;;;;;;;;;;;;16.49;50.14;102617.66;1013694;29;662;-73
2022/03/24 03:14:29;;;;;;;;;;;;;;;16.50;49.56;102619.38;1015640;29;1968;-73
2022/03/24 03:15:19;;;;;;;;;;;;;;;16.49;49.72;102616.78;1017376;29;650;-73
2022/03/24 03:16:10;;;;;;;;;;;;;;;16.48;49.77;102612.41;1017493;29;631;-73
2022/03/24 03:17:00;;;;;;;;;;;;;;;16.47;49.79;102614.22;1017515;29;615;-74
2022/03/24 03:17:51;;;;;;;;;;;;;;;16.47;49.80;102608.84;1017447;29;639;-73
2022/03/24 03:18:41;;;;;;;;;;;;;;;16.48;49.93;102615.09;1017395;29;615;-74
2022/03/24 03:19:32;;;;;;;;;;;;;;;16.47;49.61;102605.28;1017318;29;694;-75
2022/03/24 03:20:24;;;;;;;;;;;;;;;16.46;49.75;102609.78;1017389;29;709;-74
2022/03/24 03:21:16;;;;;;;;;;;;;;;16.47;49.94;102618.75;1017411;29;650;-77
2022/03/24 03:22:08;;;;;;;;;;;;;;;16.45;49.79;102613.44;1017368;29;721;-80
2022/03/24 03:22:58;;;;;;;;;;;;;;;16.47;50.03;102618.75;1017394;29;627;-79
2022/03/24 03:23:48;;;;;;;;;;;;;;;16.45;49.80;102623.34;1017390;29;702;-80
2022/03/24 03:24:42;;;;;;;;;;;;;;;16.44;49.93;102617.09;1017475;29;671;-79
2022/03/24 03:25:33;;;;;;;;;;;;;;;16.43;49.63;102615.38;1017385;29;600;-80
2022/03/24 03:26:23;;;;;;;;;;;;;;;16.44;49.81;102617.09;1020945;29;798;-79
2022/03/24 03:27:13;;;;;;;;;;;;;;;16.44;49.83;102621.59;1021047;29;733;-79
2022/03/24 03:28:04;;;;;;;;;;;;;;;16.43;49.61;102620.75;1016728;29;1098;-80
2022/03/24 03:28:55;;;;;;;;;;;;;;;16.43;49.82;102618.06;1018012;29;675;-80
2022/03/24 03:29:45;;;;;;;;;;;;;;;16.44;49.69;102618.91;1017584;29;702;-79
2022/03/24 03:30:35;;;;;;;;;;;;;;;16.44;50.11;102611.72;1017451;29;682;-80
2022/03/24 03:31:26;;;;;;;;;;;;;;;16.44;49.65;102616.22;1017306;29;627;-80
2022/03/24 03:32:16;;;;;;;;;;;;;;;16.41;49.90;102611.91;1017317;29;702;-80
2022/03/24 03:33:07;;;;;;;;;;;;;;;16.41;49.59;102611.91;1020957;29;674;-80
2022/03/24 03:33:58;;;;;;;;;;;;;;;16.41;49.70;102616.41;1021047;29;702;-80
2022/03/24 03:34:49;;;;;;;;;;;;;;;16.41;49.98;102616.41;1017340;29;1970;-80
2022/03/24 03:35:39;;;;;;;;;;;;;;;16.41;49.89;102611.03;1017472;29;619;-80
2022/03/24 03:36:31;;;;;;;;;;;;;;;16.40;49.76;102609.28;1017269;29;591;-80
2022/03/24 03:37:21;;;;;;;;;;;;;;;16.41;49.92;102613.72;1017307;29;694;-79
2022/03/24 03:38:11;;;;;;;;;;;;;;;16.40;49.91;102612.00;1017320;29;722;-80
2022/03/24 03:39:02;;;;;;;;;;;;;;;16.39;49.79;102608.44;1017352;29;580;-80
2022/03/24 03:39:52;;;;;;;;;;;;;;;16.39;49.99;102612.94;1017440;29;643;-80
2022/03/24 03:40:43;;;;;;;;;;;;;;;16.40;49.82;102614.69;1017214;29;670;-79
2022/03/24 03:41:34;;;;;;;;;;;;;;;16.38;49.65;102608.53;1017474;29;659;-80
2022/03/24 03:42:24;;;;;;;;;;;;;;;16.39;49.79;102615.63;1017271;29;709;-80
2022/03/24 03:43:15;;;;;;;;;;;;;;;16.38;50.00;102611.22;1017337;29;646;-80
2022/03/24 03:44:06;;;;;;;;;;;;;;;16.38;49.79;102613.91;1017148;29;1667;-79
2022/03/24 03:44:57;;;;;;;;;;;;;;;16.38;50.00;102612.09;1017995;29;627;-79
2022/03/24 03:45:47;;;;;;;;;;;;;;;16.38;49.73;102613.91;1017869;29;607;-80
2022/03/24 03:46:38;;;;;;;;;;;;;;;16.38;49.73;102611.22;1017604;29;558;-80
2022/03/24 03:47:28;;;;;;;;;;;;;;;16.38;49.81;102611.22;1017769;29;607;-78
2022/03/24 03:48:19;;;;;;;;;;;;;;;16.37;49.94;102615.72;1017905;29;677;-79
2022/03/24 03:49:10;;;;;;;;;;;;;;;16.36;49.88;102611.31;1017818;29;759;-79
2022/03/24 03:50:00;;;;;;;;;;;;;;;16.36;49.61;102610.44;1017877;29;557;-78
2022/03/24 03:50:50;;;;;;;;;;;;;;;16.35;49.87;102609.56;1017803;29;631;-78
2022/03/24 03:51:41;;;;;;;;;;;;;;;16.36;49.97;102613.13;1017869;29;918;-78
2022/03/24 03:52:32;;;;;;;;;;;;;;;16.36;49.76;102613.13;1017862;29;786;-78
2022/03/24 03:53:23;;;;;;;;;;;;;;;16.35;49.82;102611.41;1017772;29;575;-78
2022/03/24 03:54:15;;;;;;;;;;;;;;;16.33;50.03;102615.03;1019469;29;639;-78
2022/03/24 03:55:05;;;;;;;;;;;;;;;16.33;50.15;102619.56;1021462;29;666;-77
2022/03/24 03:55:56;;;;;;;;;;;;;;;16.33;49.83;102619.56;1018522;28;631;-77
2022/03/24 03:56:46;;;;;;;;;;;;;;;16.33;49.96;102616.88;1017841;29;710;-77
2022/03/24 03:57:36;;;;;;;;;;;;;;;16.31;49.87;102616.97;1015861;29;722;-76
2022/03/24 03:58:27;;;;;;;;;;;;;;;16.30;49.44;102615.22;1017886;29;689;-76
2022/03/24 03:59:18;;;;;;;;;;;;;;;16.32;49.98;102609.75;1017760;29;821;-76
2022/03/24 04:01:17;;;;;;;;;;;;;;;16.32;49.85;102612.44;1017222;29;629;-76
2022/03/24 04:02:08;;;;;;;;;;;;;;;16.32;50.03;102612.44;1017898;29;642;-76
2022/03/24 04:03:03;;;;;;;;;;;;;;;16.32;50.03;102609.75;1017835;29;681;-76
2022/03/24 04:03:54;;;;;;;;;;;;;;;16.31;50.08;102611.56;1017866;29;701;-76
2022/03/24 04:04:45;;;;;;;;;;;;;;;16.29;49.86;102608.13;1017877;29;618;-76
2022/03/24 04:05:36;;;;;;;;;;;;;;;16.29;49.91;102616.22;1017786;29;619;-75
2022/03/24 04:06:26;;;;;;;;;;;;;;;16.30;49.80;102611.69;1017757;29;630;-76
2022/03/24 04:07:18;;;;;;;;;;;;;;;16.29;49.96;102613.53;1017781;29;635;-76
2022/03/24 04:08:09;;;;;;;;;;;;;;;16.28;50.08;102609.09;1017743;29;1191;-77
2022/03/24 04:08:59;;;;;;;;;;;;;;;16.28;50.04;102609.09;1017426;29;627;-77
2022/03/24 04:09:50;;;;;;;;;;;;;;;16.29;49.50;102615.34;1017183;29;639;-76
2022/03/24 04:10:40;;;;;;;;;;;;;;;16.28;49.91;102613.63;1017893;29;706;-76
2022/03/24 04:11:30;;;;;;;;;;;;;;;16.28;49.91;102614.47;1016796;29;685;-77
2022/03/24 04:12:21;;;;;;;;;;;;;;;16.27;50.22;102606.50;1017494;29;678;-76
2022/03/24 04:13:11;;;;;;;;;;;;;;;16.26;49.80;102619.09;1016920;29;734;-77
2022/03/24 04:14:02;;;;;;;;;;;;;;;16.25;50.00;102617.34;1016948;29;1563;-77
2022/03/24 04:14:52;;;;;;;;;;;;;;;16.26;50.12;102612.84;1017064;29;1898;-77
2022/03/24 04:15:43;;;;;;;;;;;;;;;16.25;49.64;102609.28;1017168;29;600;-76
2022/03/24 04:16:33;;;;;;;;;;;;;;;16.26;49.71;102608.31;1020804;29;702;-77
2022/03/24 04:17:23;;;;;;;;;;;;;;;16.25;50.00;102611.09;1020853;29;724;-76
2022/03/24 04:18:14;;;;;;;;;;;;;;;16.25;50.07;102614.66;1017320;29;643;-77
2022/03/24 04:19:07;;;;;;;;;;;;;;;16.24;49.75;102604.84;1017247;29;623;-75
2022/03/24 04:19:57;;;;;;;;;;;;;;;16.24;49.88;102602.16;1017286;29;661;-75
2022/03/24 04:20:48;;;;;;;;;;;;;;;16.25;49.89;102606.59;1017340;29;843;-75
2022/03/24 04:21:38;;;;;;;;;;;;;;;16.24;49.92;102607.53;1017306;29;857;-76
2022/03/24 04:22:29;;;;;;;;;;;;;;;16.24;50.23;102609.38;1017279;29;659;-76
2022/03/24 04:23:19;;;;;;;;;;;;;;;16.23;49.92;102604.94;1020822;29;651;-76
2022/03/24 04:24:10;;;;;;;;;;;;;;;16.22;50.37;102606.78;1020770;29;722;-76
2022/03/24 04:25:00;;;;;;;;;;;;;;;16.22;50.10;102612.16;1017293;29;737;-76
2022/03/24 04:25:51;;;;;;;;;;;;;;;16.22;50.10;102612.16;1017250;29;679;-76
2022/03/24 04:26:41;;;;;;;;;;;;;;;16.22;50.02;102609.47;1017353;29;667;-76
2022/03/24 04:27:32;;;;;;;;;;;;;;;16.22;49.87;102609.47;1017218;29;627;-76
2022/03/24 04:28:23;;;;;;;;;;;;;;;16.21;49.88;102610.41;1017146;29;699;-77